Mc Crory, Arkansas
Current Conditions -  °F | °C
As of 9:56 AM on Wednesday 26 Nov 2014 (Local Time) from KM19 Reporting Station
Overcast Overcast  
Wind Chill: 35°   Ceiling: 11000
Heat Index: 41°   Visibility: 10mi
Dew Point: 35°   Wind: 9mph
Humidity: 79%   Direction: 170°S
Pressure: 30.04"   Gusts: NA
Location:  35.2562°N, 91.1949°W
Report Text: KM19 261556Z AUTO 17008KT 10SM OVC110 05/02 A3004 RMK AO2 T00500016 SLP174
Loading
Personal Weather Stations






























Interactive Weather Map New forecast layout! Learn more

10-Day Weather Forecast

Advertisements
Track Severe Weather on mobile